sensor_id;sensor_type;location;lat;lon;timestamp;P1;durP1;ratioP1;P2;durP2;ratioP2
66012;SDS011;52783;50.502;8.190;2024-03-17T00:00:44;9.38;;;4.35;;
66012;SDS011;52783;50.502;8.190;2024-03-17T00:03:10;6.47;;;4.63;;
66012;SDS011;52783;50.502;8.190;2024-03-17T00:05:36;11.75;;;5.25;;
66012;SDS011;52783;50.502;8.190;2024-03-17T00:08:02;13.82;;;5.28;;
66012;SDS011;52783;50.502;8.190;2024-03-17T00:10:30;13.63;;;4.88;;
66012;SDS011;52783;50.502;8.190;2024-03-17T00:12:56;10.13;;;5.38;;
66012;SDS011;52783;50.502;8.190;2024-03-17T00:15:22;7.55;;;4.35;;
66012;SDS011;52783;50.502;8.190;2024-03-17T00:17:48;13.20;;;4.90;;
66012;SDS011;52783;50.502;8.190;2024-03-17T00:20:13;15.57;;;5.50;;
66012;SDS011;52783;50.502;8.190;2024-03-17T00:22:47;9.45;;;5.47;;
66012;SDS011;52783;50.502;8.190;2024-03-17T00:25:13;8.63;;;5.75;;
66012;SDS011;52783;50.502;8.190;2024-03-17T00:27:39;10.23;;;5.80;;
66012;SDS011;52783;50.502;8.190;2024-03-17T00:30:08;11.98;;;5.47;;
66012;SDS011;52783;50.502;8.190;2024-03-17T00:32:37;8.05;;;5.10;;
66012;SDS011;52783;50.502;8.190;2024-03-17T00:35:04;7.72;;;5.00;;
66012;SDS011;52783;50.502;8.190;2024-03-17T00:37:30;11.50;;;5.45;;
66012;SDS011;52783;50.502;8.190;2024-03-17T00:39:55;9.68;;;5.35;;
66012;SDS011;52783;50.502;8.190;2024-03-17T00:42:21;11.38;;;5.80;;
66012;SDS011;52783;50.502;8.190;2024-03-17T00:44:46;8.80;;;5.43;;
66012;SDS011;52783;50.502;8.190;2024-03-17T00:47:12;12.23;;;5.25;;
66012;SDS011;52783;50.502;8.190;2024-03-17T00:49:38;14.02;;;5.88;;
66012;SDS011;52783;50.502;8.190;2024-03-17T00:52:03;9.85;;;5.93;;
66012;SDS011;52783;50.502;8.190;2024-03-17T00:54:29;10.80;;;6.35;;
66012;SDS011;52783;50.502;8.190;2024-03-17T00:56:55;12.13;;;5.57;;
66012;SDS011;52783;50.502;8.190;2024-03-17T00:59:21;15.60;;;6.65;;
66012;SDS011;52783;50.502;8.190;2024-03-17T01:01:46;12.30;;;7.07;;
66012;SDS011;52783;50.502;8.190;2024-03-17T01:04:12;8.50;;;5.80;;
66012;SDS011;52783;50.502;8.190;2024-03-17T01:06:37;9.18;;;5.88;;
66012;SDS011;52783;50.502;8.190;2024-03-17T01:09:05;13.13;;;7.53;;
66012;SDS011;52783;50.502;8.190;2024-03-17T01:11:31;12.15;;;5.82;;
66012;SDS011;52783;50.502;8.190;2024-03-17T01:13:57;11.57;;;5.95;;
66012;SDS011;52783;50.502;8.190;2024-03-17T01:16:22;9.23;;;5.88;;
66012;SDS011;52783;50.502;8.190;2024-03-17T01:18:48;10.55;;;5.93;;
66012;SDS011;52783;50.502;8.190;2024-03-17T01:21:13;10.45;;;5.47;;
66012;SDS011;52783;50.502;8.190;2024-03-17T01:23:39;8.65;;;5.55;;
66012;SDS011;52783;50.502;8.190;2024-03-17T01:26:04;17.15;;;5.93;;
66012;SDS011;52783;50.502;8.190;2024-03-17T01:28:30;9.50;;;5.05;;
66012;SDS011;52783;50.502;8.190;2024-03-17T01:30:56;11.80;;;5.05;;
66012;SDS011;52783;50.502;8.190;2024-03-17T01:33:21;8.80;;;5.25;;
66012;SDS011;52783;50.502;8.190;2024-03-17T01:35:47;11.68;;;5.20;;
66012;SDS011;52783;50.502;8.190;2024-03-17T01:38:13;8.52;;;5.35;;
66012;SDS011;52783;50.502;8.190;2024-03-17T01:40:38;10.55;;;5.43;;
66012;SDS011;52783;50.502;8.190;2024-03-17T01:43:04;9.07;;;5.72;;
66012;SDS011;52783;50.502;8.190;2024-03-17T01:45:34;13.90;;;5.80;;
66012;SDS011;52783;50.502;8.190;2024-03-17T01:48:01;9.00;;;5.18;;
66012;SDS011;52783;50.502;8.190;2024-03-17T01:50:37;8.73;;;5.53;;
66012;SDS011;52783;50.502;8.190;2024-03-17T01:53:03;7.13;;;5.20;;
66012;SDS011;52783;50.502;8.190;2024-03-17T01:55:31;11.02;;;5.20;;
66012;SDS011;52783;50.502;8.190;2024-03-17T01:57:58;12.55;;;5.32;;
66012;SDS011;52783;50.502;8.190;2024-03-17T02:00:24;10.82;;;5.47;;
66012;SDS011;52783;50.502;8.190;2024-03-17T02:02:51;8.63;;;5.38;;
66012;SDS011;52783;50.502;8.190;2024-03-17T02:05:17;12.02;;;6.03;;
66012;SDS011;52783;50.502;8.190;2024-03-17T02:07:42;8.10;;;5.50;;
66012;SDS011;52783;50.502;8.190;2024-03-17T02:10:08;17.38;;;6.82;;
66012;SDS011;52783;50.502;8.190;2024-03-17T02:12:34;12.68;;;6.18;;
66012;SDS011;52783;50.502;8.190;2024-03-17T02:15:01;10.02;;;6.00;;
66012;SDS011;52783;50.502;8.190;2024-03-17T02:17:30;10.68;;;6.50;;
66012;SDS011;52783;50.502;8.190;2024-03-17T02:19:56;11.48;;;6.13;;
66012;SDS011;52783;50.502;8.190;2024-03-17T02:22:22;11.05;;;5.90;;
66012;SDS011;52783;50.502;8.190;2024-03-17T02:24:47;8.25;;;5.80;;
66012;SDS011;52783;50.502;8.190;2024-03-17T02:27:13;9.90;;;6.18;;
66012;SDS011;52783;50.502;8.190;2024-03-17T02:29:39;10.55;;;5.60;;
66012;SDS011;52783;50.502;8.190;2024-03-17T02:32:05;12.93;;;6.85;;
66012;SDS011;52783;50.502;8.190;2024-03-17T02:34:35;10.80;;;6.15;;
66012;SDS011;52783;50.502;8.190;2024-03-17T02:37:02;14.95;;;7.43;;
66012;SDS011;52783;50.502;8.190;2024-03-17T02:39:29;12.93;;;6.80;;
66012;SDS011;52783;50.502;8.190;2024-03-17T02:42:01;14.13;;;6.60;;
66012;SDS011;52783;50.502;8.190;2024-03-17T02:44:29;10.50;;;6.47;;
66012;SDS011;52783;50.502;8.190;2024-03-17T02:47:13;13.05;;;6.85;;
66012;SDS011;52783;50.502;8.190;2024-03-17T02:49:39;11.88;;;6.50;;
66012;SDS011;52783;50.502;8.190;2024-03-17T02:52:08;14.57;;;6.47;;
66012;SDS011;52783;50.502;8.190;2024-03-17T02:54:35;14.07;;;6.90;;
66012;SDS011;52783;50.502;8.190;2024-03-17T02:57:01;12.00;;;6.97;;
66012;SDS011;52783;50.502;8.190;2024-03-17T02:59:27;16.88;;;6.55;;
66012;SDS011;52783;50.502;8.190;2024-03-17T03:01:53;10.45;;;6.60;;
66012;SDS011;52783;50.502;8.190;2024-03-17T03:04:19;17.48;;;6.97;;
66012;SDS011;52783;50.502;8.190;2024-03-17T03:06:45;16.90;;;8.02;;
66012;SDS011;52783;50.502;8.190;2024-03-17T03:09:11;13.50;;;7.85;;
66012;SDS011;52783;50.502;8.190;2024-03-17T03:11:45;15.73;;;8.35;;
66012;SDS011;52783;50.502;8.190;2024-03-17T03:14:11;19.70;;;7.70;;
66012;SDS011;52783;50.502;8.190;2024-03-17T03:16:37;14.30;;;7.68;;
66012;SDS011;52783;50.502;8.190;2024-03-17T03:19:03;18.52;;;8.00;;
66012;SDS011;52783;50.502;8.190;2024-03-17T03:21:30;19.65;;;8.63;;
66012;SDS011;52783;50.502;8.190;2024-03-17T03:23:56;13.65;;;6.72;;
66012;SDS011;52783;50.502;8.190;2024-03-17T03:26:21;13.25;;;7.40;;
66012;SDS011;52783;50.502;8.190;2024-03-17T03:28:48;17.88;;;8.38;;
66012;SDS011;52783;50.502;8.190;2024-03-17T03:31:14;14.80;;;7.93;;
66012;SDS011;52783;50.502;8.190;2024-03-17T03:33:40;13.82;;;7.68;;
66012;SDS011;52783;50.502;8.190;2024-03-17T03:36:07;15.27;;;8.20;;
66012;SDS011;52783;50.502;8.190;2024-03-17T03:38:36;16.63;;;8.00;;
66012;SDS011;52783;50.502;8.190;2024-03-17T03:41:08;14.75;;;7.70;;
66012;SDS011;52783;50.502;8.190;2024-03-17T03:43:38;14.50;;;8.13;;
66012;SDS011;52783;50.502;8.190;2024-03-17T03:46:04;13.43;;;7.53;;
66012;SDS011;52783;50.502;8.190;2024-03-17T03:48:30;17.13;;;8.90;;
66012;SDS011;52783;50.502;8.190;2024-03-17T03:50:55;15.65;;;7.80;;
66012;SDS011;52783;50.502;8.190;2024-03-17T03:53:21;14.02;;;7.78;;
66012;SDS011;52783;50.502;8.190;2024-03-17T03:55:47;15.15;;;9.02;;
66012;SDS011;52783;50.502;8.190;2024-03-17T03:58:14;19.58;;;8.55;;
66012;SDS011;52783;50.502;8.190;2024-03-17T04:00:39;19.23;;;9.13;;
66012;SDS011;52783;50.502;8.190;2024-03-17T04:03:05;16.38;;;8.85;;
66012;SDS011;52783;50.502;8.190;2024-03-17T04:05:31;21.67;;;8.80;;
66012;SDS011;52783;50.502;8.190;2024-03-17T04:07:56;17.60;;;9.68;;
66012;SDS011;52783;50.502;8.190;2024-03-17T04:10:23;17.30;;;8.88;;
66012;SDS011;52783;50.502;8.190;2024-03-17T04:12:49;17.58;;;9.50;;
66012;SDS011;52783;50.502;8.190;2024-03-17T04:15:15;18.02;;;8.95;;
66012;SDS011;52783;50.502;8.190;2024-03-17T04:17:41;17.17;;;8.80;;
66012;SDS011;52783;50.502;8.190;2024-03-17T04:20:07;14.88;;;8.68;;
66012;SDS011;52783;50.502;8.190;2024-03-17T04:22:34;13.13;;;8.23;;
66012;SDS011;52783;50.502;8.190;2024-03-17T04:24:59;16.27;;;9.15;;
66012;SDS011;52783;50.502;8.190;2024-03-17T04:27:26;14.07;;;8.15;;
66012;SDS011;52783;50.502;8.190;2024-03-17T04:29:53;16.77;;;8.80;;
66012;SDS011;52783;50.502;8.190;2024-03-17T04:32:20;14.60;;;8.02;;
66012;SDS011;52783;50.502;8.190;2024-03-17T04:34:46;16.13;;;8.35;;
66012;SDS011;52783;50.502;8.190;2024-03-17T04:37:12;24.25;;;8.75;;
66012;SDS011;52783;50.502;8.190;2024-03-17T04:39:41;20.33;;;8.27;;
66012;SDS011;52783;50.502;8.190;2024-03-17T04:42:15;14.10;;;8.55;;
66012;SDS011;52783;50.502;8.190;2024-03-17T04:44:41;13.70;;;7.43;;
66012;SDS011;52783;50.502;8.190;2024-03-17T04:47:07;15.02;;;7.25;;
66012;SDS011;52783;50.502;8.190;2024-03-17T04:49:37;12.13;;;6.47;;
66012;SDS011;52783;50.502;8.190;2024-03-17T04:52:07;12.07;;;7.32;;
66012;SDS011;52783;50.502;8.190;2024-03-17T04:54:35;12.57;;;7.07;;
66012;SDS011;52783;50.502;8.190;2024-03-17T04:57:01;14.57;;;7.78;;
66012;SDS011;52783;50.502;8.190;2024-03-17T04:59:27;16.92;;;6.97;;
66012;SDS011;52783;50.502;8.190;2024-03-17T05:01:53;12.52;;;7.15;;
66012;SDS011;52783;50.502;8.190;2024-03-17T05:04:18;13.68;;;7.15;;
66012;SDS011;52783;50.502;8.190;2024-03-17T05:06:44;14.68;;;7.28;;
66012;SDS011;52783;50.502;8.190;2024-03-17T05:09:14;17.55;;;8.18;;
66012;SDS011;52783;50.502;8.190;2024-03-17T05:11:40;15.30;;;7.68;;
66012;SDS011;52783;50.502;8.190;2024-03-17T05:14:06;14.00;;;8.10;;
66012;SDS011;52783;50.502;8.190;2024-03-17T05:16:32;18.65;;;7.20;;
66012;SDS011;52783;50.502;8.190;2024-03-17T05:18:58;14.15;;;8.25;;
66012;SDS011;52783;50.502;8.190;2024-03-17T05:21:24;13.63;;;7.88;;
66012;SDS011;52783;50.502;8.190;2024-03-17T05:23:51;15.38;;;8.80;;
66012;SDS011;52783;50.502;8.190;2024-03-17T05:26:17;11.98;;;6.43;;
66012;SDS011;52783;50.502;8.190;2024-03-17T05:28:43;20.00;;;7.90;;
66012;SDS011;52783;50.502;8.190;2024-03-17T05:31:09;21.67;;;8.90;;
66012;SDS011;52783;50.502;8.190;2024-03-17T05:33:35;15.45;;;8.57;;
66012;SDS011;52783;50.502;8.190;2024-03-17T05:36:01;17.90;;;8.63;;
66012;SDS011;52783;50.502;8.190;2024-03-17T05:38:28;16.00;;;8.20;;
66012;SDS011;52783;50.502;8.190;2024-03-17T05:43:27;24.92;;;11.15;;
66012;SDS011;52783;50.502;8.190;2024-03-17T05:45:56;17.60;;;8.90;;
66012;SDS011;52783;50.502;8.190;2024-03-17T05:48:22;18.83;;;9.52;;
66012;SDS011;52783;50.502;8.190;2024-03-17T05:50:49;14.63;;;8.57;;
66012;SDS011;52783;50.502;8.190;2024-03-17T05:53:16;17.85;;;8.98;;
66012;SDS011;52783;50.502;8.190;2024-03-17T05:55:43;17.67;;;8.35;;
66012;SDS011;52783;50.502;8.190;2024-03-17T05:58:09;18.23;;;9.07;;
66012;SDS011;52783;50.502;8.190;2024-03-17T06:00:38;13.57;;;8.35;;
66012;SDS011;52783;50.502;8.190;2024-03-17T06:03:04;15.70;;;8.25;;
66012;SDS011;52783;50.502;8.190;2024-03-17T06:05:34;12.65;;;7.80;;
66012;SDS011;52783;50.502;8.190;2024-03-17T06:08:00;17.17;;;8.68;;
66012;SDS011;52783;50.502;8.190;2024-03-17T06:10:28;12.40;;;7.47;;
66012;SDS011;52783;50.502;8.190;2024-03-17T06:12:54;13.73;;;7.82;;
66012;SDS011;52783;50.502;8.190;2024-03-17T06:15:19;15.30;;;8.05;;
66012;SDS011;52783;50.502;8.190;2024-03-17T06:17:46;15.07;;;7.68;;
66012;SDS011;52783;50.502;8.190;2024-03-17T06:20:11;20.13;;;8.13;;
66012;SDS011;52783;50.502;8.190;2024-03-17T06:22:38;16.20;;;8.18;;
66012;SDS011;52783;50.502;8.190;2024-03-17T06:25:04;14.05;;;8.13;;
66012;SDS011;52783;50.502;8.190;2024-03-17T06:27:31;16.17;;;8.02;;
66012;SDS011;52783;50.502;8.190;2024-03-17T06:29:59;15.00;;;8.40;;
66012;SDS011;52783;50.502;8.190;2024-03-17T06:32:28;19.13;;;8.30;;
66012;SDS011;52783;50.502;8.190;2024-03-17T06:34:57;15.02;;;7.47;;
66012;SDS011;52783;50.502;8.190;2024-03-17T06:37:26;15.57;;;7.13;;
66012;SDS011;52783;50.502;8.190;2024-03-17T06:39:52;11.73;;;7.05;;
66012;SDS011;52783;50.502;8.190;2024-03-17T06:42:18;9.70;;;5.90;;
66012;SDS011;52783;50.502;8.190;2024-03-17T06:44:44;9.35;;;5.97;;
66012;SDS011;52783;50.502;8.190;2024-03-17T06:47:10;13.05;;;6.43;;
66012;SDS011;52783;50.502;8.190;2024-03-17T06:49:35;11.35;;;6.15;;
66012;SDS011;52783;50.502;8.190;2024-03-17T06:52:01;8.88;;;5.68;;
66012;SDS011;52783;50.502;8.190;2024-03-17T06:54:26;10.25;;;5.82;;
66012;SDS011;52783;50.502;8.190;2024-03-17T06:56:52;10.88;;;5.40;;
66012;SDS011;52783;50.502;8.190;2024-03-17T06:59:18;8.40;;;5.47;;
66012;SDS011;52783;50.502;8.190;2024-03-17T07:01:45;8.63;;;5.47;;
66012;SDS011;52783;50.502;8.190;2024-03-17T07:04:11;9.65;;;5.15;;
66012;SDS011;52783;50.502;8.190;2024-03-17T07:06:37;8.60;;;4.28;;
66012;SDS011;52783;50.502;8.190;2024-03-17T07:09:03;8.65;;;4.90;;
66012;SDS011;52783;50.502;8.190;2024-03-17T07:11:28;11.52;;;4.88;;
66012;SDS011;52783;50.502;8.190;2024-03-17T07:13:54;15.82;;;4.97;;
66012;SDS011;52783;50.502;8.190;2024-03-17T07:16:20;6.35;;;4.35;;
66012;SDS011;52783;50.502;8.190;2024-03-17T07:18:50;5.95;;;3.80;;
66012;SDS011;52783;50.502;8.190;2024-03-17T07:21:17;6.32;;;3.80;;
66012;SDS011;52783;50.502;8.190;2024-03-17T07:23:43;6.43;;;3.80;;
66012;SDS011;52783;50.502;8.190;2024-03-17T07:26:09;10.48;;;4.70;;
66012;SDS011;52783;50.502;8.190;2024-03-17T07:28:35;7.05;;;4.30;;
66012;SDS011;52783;50.502;8.190;2024-03-17T07:31:05;12.93;;;4.80;;
66012;SDS011;52783;50.502;8.190;2024-03-17T07:33:33;5.57;;;3.50;;
66012;SDS011;52783;50.502;8.190;2024-03-17T07:35:59;5.78;;;3.58;;
66012;SDS011;52783;50.502;8.190;2024-03-17T07:38:28;8.90;;;4.30;;
66012;SDS011;52783;50.502;8.190;2024-03-17T07:40:56;12.20;;;4.78;;
66012;SDS011;52783;50.502;8.190;2024-03-17T07:43:26;7.63;;;4.10;;
66012;SDS011;52783;50.502;8.190;2024-03-17T07:45:59;7.68;;;4.47;;
66012;SDS011;52783;50.502;8.190;2024-03-17T07:48:25;6.93;;;4.05;;
66012;SDS011;52783;50.502;8.190;2024-03-17T07:50:58;6.13;;;3.67;;
66012;SDS011;52783;50.502;8.190;2024-03-17T07:53:25;6.78;;;4.00;;
66012;SDS011;52783;50.502;8.190;2024-03-17T07:58:30;7.68;;;4.85;;
66012;SDS011;52783;50.502;8.190;2024-03-17T08:01:00;9.32;;;4.68;;
66012;SDS011;52783;50.502;8.190;2024-03-17T08:03:27;8.05;;;4.47;;
66012;SDS011;52783;50.502;8.190;2024-03-17T08:05:53;9.43;;;4.60;;
66012;SDS011;52783;50.502;8.190;2024-03-17T08:08:19;6.20;;;4.43;;
66012;SDS011;52783;50.502;8.190;2024-03-17T08:10:46;7.18;;;4.75;;
66012;SDS011;52783;50.502;8.190;2024-03-17T08:13:13;6.93;;;4.22;;
66012;SDS011;52783;50.502;8.190;2024-03-17T08:15:41;9.65;;;4.50;;
66012;SDS011;52783;50.502;8.190;2024-03-17T08:18:07;8.13;;;4.78;;
66012;SDS011;52783;50.502;8.190;2024-03-17T08:20:40;6.68;;;4.38;;
66012;SDS011;52783;50.502;8.190;2024-03-17T08:23:07;9.40;;;4.97;;
66012;SDS011;52783;50.502;8.190;2024-03-17T08:25:33;6.65;;;4.07;;
66012;SDS011;52783;50.502;8.190;2024-03-17T08:27:59;6.47;;;3.70;;
66012;SDS011;52783;50.502;8.190;2024-03-17T08:30:25;8.50;;;2.80;;
66012;SDS011;52783;50.502;8.190;2024-03-17T08:32:51;9.50;;;3.67;;
66012;SDS011;52783;50.502;8.190;2024-03-17T08:35:17;6.40;;;3.33;;
66012;SDS011;52783;50.502;8.190;2024-03-17T08:37:42;5.20;;;3.22;;
66012;SDS011;52783;50.502;8.190;2024-03-17T08:40:10;7.30;;;3.13;;
66012;SDS011;52783;50.502;8.190;2024-03-17T08:42:35;6.32;;;3.08;;
66012;SDS011;52783;50.502;8.190;2024-03-17T08:45:01;5.65;;;2.92;;
66012;SDS011;52783;50.502;8.190;2024-03-17T08:47:28;6.88;;;3.13;;
66012;SDS011;52783;50.502;8.190;2024-03-17T08:49:53;6.68;;;3.17;;
66012;SDS011;52783;50.502;8.190;2024-03-17T08:52:19;5.72;;;2.92;;
66012;SDS011;52783;50.502;8.190;2024-03-17T08:54:46;4.53;;;3.03;;
66012;SDS011;52783;50.502;8.190;2024-03-17T08:57:12;6.57;;;3.33;;
66012;SDS011;52783;50.502;8.190;2024-03-17T08:59:38;18.17;;;8.27;;
66012;SDS011;52783;50.502;8.190;2024-03-17T09:02:03;4.60;;;3.00;;
66012;SDS011;52783;50.502;8.190;2024-03-17T09:04:29;7.60;;;3.05;;
66012;SDS011;52783;50.502;8.190;2024-03-17T09:06:56;4.25;;;2.55;;
66012;SDS011;52783;50.502;8.190;2024-03-17T09:09:22;3.83;;;2.90;;
66012;SDS011;52783;50.502;8.190;2024-03-17T09:11:48;5.18;;;2.65;;
66012;SDS011;52783;50.502;8.190;2024-03-17T09:14:13;6.63;;;2.58;;
66012;SDS011;52783;50.502;8.190;2024-03-17T09:16:39;4.18;;;2.55;;
66012;SDS011;52783;50.502;8.190;2024-03-17T09:19:04;4.00;;;2.50;;
66012;SDS011;52783;50.502;8.190;2024-03-17T09:21:30;7.45;;;2.47;;
66012;SDS011;52783;50.502;8.190;2024-03-17T09:23:55;6.03;;;2.90;;
66012;SDS011;52783;50.502;8.190;2024-03-17T09:26:21;5.03;;;2.80;;
66012;SDS011;52783;50.502;8.190;2024-03-17T09:28:47;11.68;;;2.70;;
66012;SDS011;52783;50.502;8.190;2024-03-17T09:31:12;2.85;;;2.50;;
66012;SDS011;52783;50.502;8.190;2024-03-17T09:33:38;4.63;;;2.83;;
66012;SDS011;52783;50.502;8.190;2024-03-17T09:36:07;5.00;;;2.80;;
66012;SDS011;52783;50.502;8.190;2024-03-17T09:38:38;9.15;;;2.78;;
66012;SDS011;52783;50.502;8.190;2024-03-17T09:41:05;3.80;;;2.60;;
66012;SDS011;52783;50.502;8.190;2024-03-17T09:43:42;7.10;;;2.63;;
66012;SDS011;52783;50.502;8.190;2024-03-17T09:46:08;10.32;;;3.05;;
66012;SDS011;52783;50.502;8.190;2024-03-17T09:48:35;4.72;;;2.80;;
66012;SDS011;52783;50.502;8.190;2024-03-17T09:51:01;5.78;;;2.47;;
66012;SDS011;52783;50.502;8.190;2024-03-17T09:53:28;12.45;;;7.55;;
66012;SDS011;52783;50.502;8.190;2024-03-17T09:58:46;12.45;;;4.93;;
66012;SDS011;52783;50.502;8.190;2024-03-17T10:01:16;5.20;;;2.83;;
66012;SDS011;52783;50.502;8.190;2024-03-17T10:03:46;4.80;;;2.83;;
66012;SDS011;52783;50.502;8.190;2024-03-17T10:06:16;6.45;;;3.03;;
66012;SDS011;52783;50.502;8.190;2024-03-17T10:08:50;3.15;;;2.63;;
66012;SDS011;52783;50.502;8.190;2024-03-17T10:11:18;5.35;;;2.78;;
66012;SDS011;52783;50.502;8.190;2024-03-17T10:13:58;11.35;;;3.00;;
66012;SDS011;52783;50.502;8.190;2024-03-17T10:16:28;4.75;;;2.70;;
66012;SDS011;52783;50.502;8.190;2024-03-17T10:19:08;6.60;;;3.10;;
66012;SDS011;52783;50.502;8.190;2024-03-17T10:21:38;4.40;;;2.88;;
66012;SDS011;52783;50.502;8.190;2024-03-17T10:24:12;6.13;;;2.83;;
66012;SDS011;52783;50.502;8.190;2024-03-17T10:26:44;4.43;;;2.65;;
66012;SDS011;52783;50.502;8.190;2024-03-17T10:29:25;3.30;;;2.58;;
66012;SDS011;52783;50.502;8.190;2024-03-17T10:31:56;3.65;;;2.58;;
66012;SDS011;52783;50.502;8.190;2024-03-17T10:34:23;5.13;;;2.55;;
66012;SDS011;52783;50.502;8.190;2024-03-17T10:37:15;5.28;;;2.80;;
66012;SDS011;52783;50.502;8.190;2024-03-17T10:39:43;12.02;;;3.83;;
66012;SDS011;52783;50.502;8.190;2024-03-17T10:42:10;5.30;;;2.60;;
66012;SDS011;52783;50.502;8.190;2024-03-17T10:44:40;5.85;;;2.88;;
66012;SDS011;52783;50.502;8.190;2024-03-17T10:47:13;6.75;;;3.00;;
66012;SDS011;52783;50.502;8.190;2024-03-17T10:49:46;4.70;;;2.60;;
66012;SDS011;52783;50.502;8.190;2024-03-17T10:52:17;7.95;;;2.78;;
66012;SDS011;52783;50.502;8.190;2024-03-17T10:54:50;4.60;;;2.78;;
66012;SDS011;52783;50.502;8.190;2024-03-17T11:00:08;3.70;;;2.67;;
66012;SDS011;52783;50.502;8.190;2024-03-17T11:02:37;9.18;;;2.90;;
66012;SDS011;52783;50.502;8.190;2024-03-17T11:05:10;6.15;;;3.22;;
66012;SDS011;52783;50.502;8.190;2024-03-17T11:07:43;4.97;;;2.50;;
66012;SDS011;52783;50.502;8.190;2024-03-17T11:10:22;4.38;;;2.38;;
66012;SDS011;52783;50.502;8.190;2024-03-17T11:12:53;7.40;;;2.63;;
66012;SDS011;52783;50.502;8.190;2024-03-17T11:20:36;4.88;;;2.80;;
66012;SDS011;52783;50.502;8.190;2024-03-17T11:23:03;3.90;;;3.13;;
66012;SDS011;52783;50.502;8.190;2024-03-17T11:28:08;6.15;;;3.15;;
66012;SDS011;52783;50.502;8.190;2024-03-17T11:49:30;5.88;;;3.60;;
66012;SDS011;52783;50.502;8.190;2024-03-17T11:52:01;4.80;;;3.10;;
66012;SDS011;52783;50.502;8.190;2024-03-17T11:54:29;8.70;;;4.60;;
66012;SDS011;52783;50.502;8.190;2024-03-17T11:57:05;6.70;;;3.88;;
66012;SDS011;52783;50.502;8.190;2024-03-17T11:59:33;8.65;;;3.50;;
66012;SDS011;52783;50.502;8.190;2024-03-17T12:01:59;6.72;;;4.30;;
66012;SDS011;52783;50.502;8.190;2024-03-17T12:04:25;10.23;;;3.75;;
66012;SDS011;52783;50.502;8.190;2024-03-17T12:06:52;6.00;;;3.60;;
66012;SDS011;52783;50.502;8.190;2024-03-17T12:09:23;6.90;;;3.42;;
66012;SDS011;52783;50.502;8.190;2024-03-17T12:12:02;6.35;;;3.35;;
66012;SDS011;52783;50.502;8.190;2024-03-17T12:14:36;7.57;;;3.60;;
66012;SDS011;52783;50.502;8.190;2024-03-17T12:17:09;5.13;;;3.17;;
66012;SDS011;52783;50.502;8.190;2024-03-17T12:19:36;7.07;;;3.60;;
66012;SDS011;52783;50.502;8.190;2024-03-17T12:22:05;4.68;;;3.40;;
66012;SDS011;52783;50.502;8.190;2024-03-17T12:24:32;6.68;;;3.40;;
66012;SDS011;52783;50.502;8.190;2024-03-17T12:26:59;8.07;;;3.40;;
66012;SDS011;52783;50.502;8.190;2024-03-17T12:29:28;7.03;;;3.42;;
66012;SDS011;52783;50.502;8.190;2024-03-17T12:31:59;5.07;;;3.05;;
66012;SDS011;52783;50.502;8.190;2024-03-17T12:37:36;5.85;;;3.28;;
66012;SDS011;52783;50.502;8.190;2024-03-17T12:40:01;6.57;;;3.60;;
66012;SDS011;52783;50.502;8.190;2024-03-17T12:42:28;5.97;;;3.40;;
66012;SDS011;52783;50.502;8.190;2024-03-17T12:44:55;6.00;;;4.00;;
66012;SDS011;52783;50.502;8.190;2024-03-17T12:47:23;6.35;;;3.42;;
66012;SDS011;52783;50.502;8.190;2024-03-17T12:49:52;4.65;;;3.90;;
66012;SDS011;52783;50.502;8.190;2024-03-17T12:52:22;7.25;;;3.70;;
66012;SDS011;52783;50.502;8.190;2024-03-17T12:57:49;5.65;;;3.88;;
66012;SDS011;52783;50.502;8.190;2024-03-17T13:00:34;6.40;;;3.88;;
66012;SDS011;52783;50.502;8.190;2024-03-17T13:03:01;6.95;;;3.25;;
66012;SDS011;52783;50.502;8.190;2024-03-17T13:05:28;6.95;;;3.50;;
66012;SDS011;52783;50.502;8.190;2024-03-17T13:07:54;5.72;;;3.33;;
66012;SDS011;52783;50.502;8.190;2024-03-17T13:10:21;7.20;;;3.70;;
66012;SDS011;52783;50.502;8.190;2024-03-17T13:12:47;6.07;;;3.53;;
66012;SDS011;52783;50.502;8.190;2024-03-17T13:15:22;4.80;;;3.38;;
66012;SDS011;52783;50.502;8.190;2024-03-17T13:17:48;5.47;;;3.63;;
66012;SDS011;52783;50.502;8.190;2024-03-17T13:20:14;6.65;;;3.47;;
66012;SDS011;52783;50.502;8.190;2024-03-17T13:22:41;10.00;;;3.85;;
66012;SDS011;52783;50.502;8.190;2024-03-17T13:25:08;4.95;;;3.38;;
66012;SDS011;52783;50.502;8.190;2024-03-17T13:27:37;5.93;;;3.15;;
66012;SDS011;52783;50.502;8.190;2024-03-17T13:30:03;6.65;;;3.65;;
66012;SDS011;52783;50.502;8.190;2024-03-17T13:32:29;5.00;;;3.05;;
66012;SDS011;52783;50.502;8.190;2024-03-17T13:34:54;4.95;;;3.20;;
66012;SDS011;52783;50.502;8.190;2024-03-17T13:37:19;6.80;;;3.28;;
66012;SDS011;52783;50.502;8.190;2024-03-17T13:39:46;5.47;;;3.60;;
66012;SDS011;52783;50.502;8.190;2024-03-17T13:42:12;7.38;;;3.03;;
66012;SDS011;52783;50.502;8.190;2024-03-17T13:44:37;5.57;;;3.50;;
66012;SDS011;52783;50.502;8.190;2024-03-17T13:47:03;3.72;;;3.10;;
66012;SDS011;52783;50.502;8.190;2024-03-17T13:49:29;7.13;;;3.72;;
66012;SDS011;52783;50.502;8.190;2024-03-17T13:51:55;8.52;;;3.42;;
66012;SDS011;52783;50.502;8.190;2024-03-17T13:54:21;5.68;;;3.60;;
66012;SDS011;52783;50.502;8.190;2024-03-17T13:56:47;7.38;;;3.42;;
66012;SDS011;52783;50.502;8.190;2024-03-17T13:59:16;5.10;;;3.08;;
66012;SDS011;52783;50.502;8.190;2024-03-17T14:01:42;7.50;;;3.80;;
66012;SDS011;52783;50.502;8.190;2024-03-17T14:04:13;6.85;;;3.40;;
66012;SDS011;52783;50.502;8.190;2024-03-17T14:06:46;7.57;;;3.25;;
66012;SDS011;52783;50.502;8.190;2024-03-17T14:09:14;7.78;;;3.83;;
66012;SDS011;52783;50.502;8.190;2024-03-17T14:11:41;5.47;;;3.30;;
66012;SDS011;52783;50.502;8.190;2024-03-17T14:14:07;7.43;;;3.05;;
66012;SDS011;52783;50.502;8.190;2024-03-17T14:16:33;6.60;;;3.45;;
66012;SDS011;52783;50.502;8.190;2024-03-17T14:19:00;6.03;;;3.30;;
66012;SDS011;52783;50.502;8.190;2024-03-17T14:21:26;4.53;;;3.65;;
66012;SDS011;52783;50.502;8.190;2024-03-17T14:23:53;4.70;;;3.60;;
66012;SDS011;52783;50.502;8.190;2024-03-17T14:26:21;8.85;;;3.45;;
66012;SDS011;52783;50.502;8.190;2024-03-17T14:28:47;8.00;;;3.90;;
66012;SDS011;52783;50.502;8.190;2024-03-17T14:31:15;5.35;;;3.70;;
66012;SDS011;52783;50.502;8.190;2024-03-17T14:33:41;10.60;;;3.60;;
66012;SDS011;52783;50.502;8.190;2024-03-17T14:36:06;3.78;;;3.03;;
66012;SDS011;52783;50.502;8.190;2024-03-17T14:38:32;7.20;;;3.85;;
66012;SDS011;52783;50.502;8.190;2024-03-17T14:40:57;8.07;;;3.25;;
66012;SDS011;52783;50.502;8.190;2024-03-17T14:43:23;6.05;;;3.45;;
66012;SDS011;52783;50.502;8.190;2024-03-17T14:45:49;35.75;;;19.23;;
66012;SDS011;52783;50.502;8.190;2024-03-17T14:48:15;18.00;;;13.30;;
66012;SDS011;52783;50.502;8.190;2024-03-17T14:50:40;16.88;;;12.48;;
66012;SDS011;52783;50.502;8.190;2024-03-17T14:53:06;11.90;;;7.32;;
66012;SDS011;52783;50.502;8.190;2024-03-17T14:55:32;13.63;;;7.47;;
66012;SDS011;52783;50.502;8.190;2024-03-17T14:57:58;7.22;;;3.80;;
66012;SDS011;52783;50.502;8.190;2024-03-17T15:00:27;6.80;;;4.20;;
66012;SDS011;52783;50.502;8.190;2024-03-17T15:02:56;5.30;;;3.50;;
66012;SDS011;52783;50.502;8.190;2024-03-17T15:05:22;10.43;;;4.20;;
66012;SDS011;52783;50.502;8.190;2024-03-17T15:07:48;5.72;;;4.15;;
66012;SDS011;52783;50.502;8.190;2024-03-17T15:10:14;8.60;;;3.40;;
66012;SDS011;52783;50.502;8.190;2024-03-17T15:12:41;6.65;;;3.60;;
66012;SDS011;52783;50.502;8.190;2024-03-17T15:15:07;6.57;;;3.42;;
66012;SDS011;52783;50.502;8.190;2024-03-17T15:17:33;10.10;;;5.15;;
66012;SDS011;52783;50.502;8.190;2024-03-17T15:19:59;8.48;;;5.05;;
66012;SDS011;52783;50.502;8.190;2024-03-17T15:22:25;9.05;;;4.50;;
66012;SDS011;52783;50.502;8.190;2024-03-17T15:24:51;7.93;;;5.15;;